createdAt,value
2022-08-12T00:00:13.129Z,20.00
2022-08-12T00:02:04.217Z,19.90
2022-08-12T00:03:15.126Z,20.00
2022-08-12T00:04:41.751Z,19.90
2022-08-12T00:06:04.815Z,19.80
2022-08-12T00:07:26.103Z,19.70
2022-08-12T00:08:48.490Z,19.70
2022-08-12T00:10:09.016Z,19.70
2022-08-12T00:11:29.616Z,19.80
2022-08-12T00:12:50.158Z,19.70
2022-08-12T00:14:10.631Z,19.70
2022-08-12T00:15:34.985Z,19.70
2022-08-12T00:16:55.914Z,19.60
2022-08-12T00:18:16.305Z,19.60
2022-08-12T00:19:36.664Z,19.60
2022-08-12T00:21:00.827Z,19.60
2022-08-12T00:22:21.305Z,19.50
2022-08-12T00:23:41.667Z,19.50
2022-08-12T00:25:02.335Z,19.60
2022-08-12T00:26:24.554Z,19.60
2022-08-12T00:27:45.692Z,19.60
2022-08-12T00:29:06.144Z,19.50
2022-08-12T00:30:27.160Z,19.50
2022-08-12T00:31:47.515Z,19.60
2022-08-12T00:33:10.475Z,19.50
2022-08-12T00:34:33.222Z,19.50
2022-08-12T00:35:53.646Z,19.50
2022-08-12T00:37:15.161Z,19.50
2022-08-12T00:38:35.703Z,19.50
2022-08-12T00:39:57.288Z,19.50
2022-08-12T00:41:19.407Z,19.50
2022-08-12T00:42:23.943Z,19.40
2022-08-12T00:43:27.493Z,19.40
2022-08-12T00:44:29.173Z,19.40
2022-08-12T00:45:51.360Z,19.40
2022-08-12T00:46:59.244Z,19.40
2022-08-12T00:48:00.995Z,19.40
2022-08-12T00:49:04.134Z,19.30
2022-08-12T00:50:06.877Z,19.30
2022-08-12T00:51:09.718Z,19.30
2022-08-12T00:52:13.804Z,19.30
2022-08-12T00:53:16.567Z,19.30
2022-08-12T00:54:20.984Z,19.30
2022-08-12T00:55:22.934Z,19.30
2022-08-12T00:56:27.897Z,19.30
2022-08-12T00:57:35.717Z,19.20
2022-08-12T00:58:46.077Z,19.20
2022-08-12T00:59:53.661Z,19.20
2022-08-12T01:02:12.142Z,19.10
2022-08-12T01:03:18.379Z,19.10
2022-08-12T01:04:39.845Z,19.10
2022-08-12T01:06:03.264Z,19.00
2022-08-12T01:07:24.552Z,19.00
2022-08-12T01:08:45.023Z,19.00
2022-08-12T01:10:06.820Z,18.90
2022-08-12T01:11:28.009Z,18.90
2022-08-12T01:12:30.205Z,18.90
2022-08-12T01:13:34.813Z,18.90
2022-08-12T01:14:37.776Z,18.90
2022-08-12T01:15:39.639Z,18.90
2022-08-12T01:16:41.388Z,18.90
2022-08-12T01:17:46.446Z,18.80
2022-08-12T01:18:49.935Z,18.80
2022-08-12T01:19:54.186Z,18.80
2022-08-12T01:21:28.513Z,18.70
2022-08-12T01:22:58.470Z,18.70
2022-08-12T01:24:32.071Z,18.70
2022-08-12T01:25:55.609Z,18.70
2022-08-12T01:26:59.615Z,18.70
2022-08-12T01:28:04.109Z,18.70
2022-08-12T01:29:07.640Z,18.70
2022-08-12T01:30:14.308Z,18.60
2022-08-12T01:31:17.844Z,18.60
2022-08-12T01:32:21.456Z,18.60
2022-08-12T01:33:26.456Z,18.70
2022-08-12T01:34:36.585Z,18.60
2022-08-12T01:35:45.248Z,18.60
2022-08-12T01:37:02.272Z,18.60
2022-08-12T01:38:08.334Z,18.60
2022-08-12T01:39:10.862Z,18.60
2022-08-12T01:40:35.318Z,18.60
2022-08-12T01:43:00.130Z,18.50
2022-08-12T01:44:02.379Z,18.50
2022-08-12T01:45:04.921Z,18.50
2022-08-12T01:46:14.620Z,18.40
2022-08-12T01:47:31.314Z,18.40
2022-08-12T01:49:00.819Z,18.30
2022-08-12T01:50:32.481Z,18.40
2022-08-12T01:52:15.894Z,18.40
2022-08-12T01:53:11.841Z,18.30
2022-08-12T01:54:18.229Z,18.30
2022-08-12T01:55:25.293Z,18.30
2022-08-12T01:56:33.648Z,18.20
2022-08-12T01:58:01.377Z,18.20
2022-08-12T01:59:23.115Z,18.10
2022-08-12T02:00:35.630Z,18.00
2022-08-12T02:01:48.449Z,18.00
2022-08-12T02:04:13.541Z,18.00
2022-08-12T02:06:01.311Z,18.00
2022-08-12T02:07:48.812Z,18.10
2022-08-12T02:09:18.674Z,17.90
2022-08-12T02:11:13.819Z,17.90
2022-08-12T02:12:58.814Z,17.70
2022-08-12T02:14:25.119Z,17.70
2022-08-12T02:15:44.468Z,17.80
2022-08-12T02:17:13.111Z,17.80
2022-08-12T02:18:28.835Z,17.80
2022-08-12T02:20:12.176Z,17.70
2022-08-12T02:21:24.627Z,17.70
2022-08-12T02:22:42.351Z,17.60
2022-08-12T02:23:44.086Z,17.60
2022-08-12T02:24:46.998Z,17.70
2022-08-12T02:25:54.776Z,17.70
2022-08-12T02:26:57.868Z,17.70
2022-08-12T02:28:01.225Z,17.80
2022-08-12T02:29:09.561Z,17.80
2022-08-12T02:30:19.240Z,17.80
2022-08-12T02:31:20.918Z,17.80
2022-08-12T02:32:23.109Z,17.70
2022-08-12T02:33:25.450Z,17.70
2022-08-12T02:34:28.914Z,17.70
2022-08-12T02:35:33.941Z,17.70
2022-08-12T02:36:39.098Z,17.70
2022-08-12T02:37:42.385Z,17.60
2022-08-12T02:38:44.799Z,17.60
2022-08-12T02:39:49.155Z,17.50
2022-08-12T02:40:54.555Z,17.40
2022-08-12T02:42:00.385Z,17.40
2022-08-12T02:43:12.157Z,17.40
2022-08-12T02:44:16.193Z,17.40
2022-08-12T02:45:41.502Z,17.20
2022-08-12T02:46:49.116Z,17.20
2022-08-12T02:47:58.869Z,17.30
2022-08-12T02:49:09.448Z,17.30
2022-08-12T02:50:15.917Z,17.20
2022-08-12T02:51:23.576Z,17.20
2022-08-12T02:52:27.241Z,17.20
2022-08-12T02:53:31.866Z,17.10
2022-08-12T02:54:34.385Z,17.20
2022-08-12T02:55:36.549Z,17.20
2022-08-12T02:56:41.114Z,17.20
2022-08-12T02:57:44.480Z,17.20
2022-08-12T02:58:46.485Z,17.20
2022-08-12T02:59:49.765Z,17.20
2022-08-12T03:00:52.132Z,17.20
2022-08-12T03:01:56.058Z,17.20
2022-08-12T03:03:04.561Z,17.20
2022-08-12T03:04:07.546Z,17.10
2022-08-12T03:05:25.225Z,17.00
2022-08-12T03:06:33.951Z,17.10
2022-08-12T03:07:59.284Z,17.10
2022-08-12T03:09:03.739Z,17.10
2022-08-12T03:10:15.979Z,17.10
2022-08-12T03:11:29.216Z,17.10
2022-08-12T03:12:42.806Z,17.20
2022-08-12T03:14:00.612Z,17.10
2022-08-12T03:15:06.702Z,17.10
2022-08-12T03:16:08.596Z,17.10
2022-08-12T03:17:21.996Z,17.10
2022-08-12T03:18:30.810Z,17.10
2022-08-12T03:19:32.653Z,17.00
2022-08-12T03:20:38.151Z,17.00
2022-08-12T03:21:53.046Z,17.00
2022-08-12T03:23:06.149Z,17.10
2022-08-12T03:24:09.159Z,17.10
2022-08-12T03:25:17.466Z,17.10
2022-08-12T03:26:22.679Z,17.10
2022-08-12T03:27:26.805Z,17.10
2022-08-12T03:28:49.172Z,17.10
2022-08-12T03:29:55.506Z,17.10
2022-08-12T03:31:02.151Z,17.10
2022-08-12T03:32:05.676Z,17.10
2022-08-12T03:33:09.236Z,17.10
2022-08-12T03:34:14.529Z,17.10
2022-08-12T03:35:40.743Z,17.00
2022-08-12T03:36:43.482Z,17.00
2022-08-12T03:37:45.795Z,17.00
2022-08-12T03:39:09.494Z,17.00
2022-08-12T03:40:32.357Z,16.90
2022-08-12T03:41:35.379Z,16.80
2022-08-12T03:43:05.281Z,16.70
2022-08-12T03:44:38.044Z,16.70
2022-08-12T03:45:58.569Z,16.60
2022-08-12T03:47:26.868Z,16.60
2022-08-12T03:48:47.973Z,16.60
2022-08-12T03:50:10.010Z,16.60
2022-08-12T03:51:30.508Z,16.50
2022-08-12T03:52:51.004Z,16.50
2022-08-12T03:54:11.960Z,16.50
2022-08-12T03:55:33.378Z,16.50
2022-08-12T03:56:53.858Z,16.40
2022-08-12T03:58:14.733Z,16.40
2022-08-12T03:59:35.096Z,16.30
2022-08-12T04:00:37.959Z,16.30
2022-08-12T04:01:41.234Z,16.30
2022-08-12T04:02:42.977Z,16.30
2022-08-12T04:03:54.681Z,16.30
2022-08-12T04:04:57.355Z,16.20
2022-08-12T04:05:59.656Z,16.20
2022-08-12T04:07:04.450Z,16.20
2022-08-12T04:08:10.284Z,16.20
2022-08-12T04:09:16.433Z,16.20
2022-08-12T04:10:19.265Z,16.20
2022-08-12T04:11:47.152Z,16.20
2022-08-12T04:13:18.435Z,16.20
2022-08-12T04:14:20.613Z,16.10
2022-08-12T04:15:25.921Z,16.20
2022-08-12T04:16:27.655Z,16.20
2022-08-12T04:17:31.739Z,16.20
2022-08-12T04:18:33.752Z,16.20
2022-08-12T04:19:36.716Z,16.20
2022-08-12T04:20:42.973Z,16.20
2022-08-12T04:22:02.861Z,16.20
2022-08-12T04:23:05.879Z,16.20
2022-08-12T04:24:09.245Z,16.20
2022-08-12T04:25:12.145Z,16.20
2022-08-12T04:26:14.459Z,16.20
2022-08-12T04:27:16.080Z,16.20
2022-08-12T04:28:25.779Z,16.20
2022-08-12T04:30:30.780Z,16.30
2022-08-12T04:30:48.983Z,16.30
2022-08-12T04:31:50.751Z,16.30
2022-08-12T04:32:53.885Z,16.30
2022-08-12T04:33:57.532Z,16.30
2022-08-12T04:34:59.227Z,16.30
2022-08-12T04:36:00.907Z,16.40
2022-08-12T04:37:02.542Z,16.40
2022-08-12T04:38:05.319Z,16.40
2022-08-12T04:39:10.605Z,16.40
2022-08-12T04:40:13.250Z,16.40
2022-08-12T04:41:15.722Z,16.50
2022-08-12T04:42:17.379Z,16.40
2022-08-12T04:44:01.069Z,16.40
2022-08-12T04:44:42.311Z,16.50
2022-08-12T04:45:44.018Z,16.50
2022-08-12T04:46:45.779Z,16.40
2022-08-12T04:47:47.687Z,16.40
2022-08-12T04:48:49.492Z,16.40
2022-08-12T04:49:51.413Z,16.40
2022-08-12T04:50:53.003Z,16.30
2022-08-12T04:51:59.380Z,16.40
2022-08-12T04:53:02.074Z,16.40
2022-08-12T04:54:04.803Z,16.40
2022-08-12T04:55:08.018Z,16.40
2022-08-12T04:56:12.860Z,16.50
2022-08-12T04:57:14.695Z,16.50
2022-08-12T04:58:16.516Z,16.60
2022-08-12T04:59:32.679Z,16.50
2022-08-12T05:00:50.192Z,16.60
2022-08-12T05:01:53.572Z,16.60
2022-08-12T05:02:55.374Z,16.60
2022-08-12T05:03:58.598Z,16.60
2022-08-12T05:05:01.391Z,16.70
2022-08-12T05:06:03.135Z,16.60
2022-08-12T05:07:08.432Z,16.70
2022-08-12T05:08:16.167Z,16.70
2022-08-12T05:09:17.802Z,16.70
2022-08-12T05:10:21.628Z,16.70
2022-08-12T05:11:37.669Z,16.70
2022-08-12T05:12:59.984Z,16.70
2022-08-12T05:14:02.031Z,16.70
2022-08-12T05:15:19.624Z,16.70
2022-08-12T05:16:32.440Z,16.70
2022-08-12T05:17:35.829Z,16.80
2022-08-12T05:18:39.725Z,16.80
2022-08-12T05:19:42.290Z,16.90
2022-08-12T05:20:45.249Z,16.90
2022-08-12T05:21:47.165Z,17.00
2022-08-12T05:22:50.041Z,16.90
2022-08-12T05:23:54.923Z,17.00
2022-08-12T05:24:56.550Z,17.10
2022-08-12T05:25:59.099Z,17.10
2022-08-12T05:27:00.748Z,17.20
2022-08-12T05:28:03.808Z,17.20
2022-08-12T05:30:05.327Z,17.30
2022-08-12T05:30:30.849Z,17.40
2022-08-12T05:31:40.356Z,17.50
2022-08-12T05:32:49.412Z,17.50
2022-08-12T05:33:51.110Z,17.60
2022-08-12T05:34:53.676Z,17.70
2022-08-12T05:35:55.278Z,17.80
2022-08-12T05:36:57.040Z,17.90
2022-08-12T05:38:17.275Z,17.90
2022-08-12T05:39:19.012Z,18.00
2022-08-12T05:40:20.634Z,18.00
2022-08-12T05:41:24.309Z,18.00
2022-08-12T05:42:32.474Z,18.00
2022-08-12T05:43:36.391Z,18.00
2022-08-12T05:44:38.086Z,18.00
2022-08-12T05:45:44.358Z,18.10
2022-08-12T05:46:46.560Z,18.00
2022-08-12T05:47:53.663Z,18.00
2022-08-12T05:48:56.558Z,18.00
2022-08-12T05:49:59.502Z,18.10
2022-08-12T05:51:01.099Z,18.10
2022-08-12T05:52:02.875Z,18.10
2022-08-12T05:53:06.012Z,18.20
2022-08-12T05:54:07.699Z,18.10
2022-08-12T05:55:10.291Z,18.10
2022-08-12T05:56:22.533Z,18.20
2022-08-12T05:57:25.215Z,18.20
2022-08-12T05:58:27.163Z,18.20
2022-08-12T05:59:28.769Z,18.30
2022-08-12T06:00:31.894Z,18.30
2022-08-12T06:02:10.788Z,18.30
2022-08-12T06:03:02.096Z,18.40
2022-08-12T06:04:04.819Z,18.40
2022-08-12T06:05:10.423Z,18.40
2022-08-12T06:06:13.822Z,18.50
2022-08-12T06:07:59.229Z,18.60
2022-08-12T06:08:37.868Z,18.60
2022-08-12T06:09:39.589Z,18.60
2022-08-12T06:10:41.242Z,18.70
2022-08-12T06:12:04.478Z,18.70
2022-08-12T06:13:07.491Z,18.80
2022-08-12T06:14:12.032Z,18.90
2022-08-12T06:15:13.964Z,18.90
2022-08-12T06:16:18.725Z,19.00
2022-08-12T06:17:20.436Z,19.00
2022-08-12T06:18:24.422Z,18.90
2022-08-12T06:20:26.238Z,19.00
2022-08-12T06:20:59.046Z,18.90
2022-08-12T06:22:03.432Z,19.00
2022-08-12T06:23:05.529Z,19.00
2022-08-12T06:24:08.498Z,19.00
2022-08-12T06:25:18.380Z,19.00
2022-08-12T06:26:23.658Z,19.10
2022-08-12T06:27:25.304Z,19.10
2022-08-12T06:28:30.038Z,19.20
2022-08-12T06:30:06.979Z,19.30
2022-08-12T06:31:22.087Z,19.40
2022-08-12T06:32:16.293Z,19.40
2022-08-12T06:33:22.293Z,19.50
2022-08-12T06:35:23.795Z,19.40
2022-08-12T06:35:59.065Z,19.40
2022-08-12T06:37:00.816Z,19.50
2022-08-12T06:38:03.704Z,19.60
2022-08-12T06:39:05.361Z,19.60
2022-08-12T06:40:37.415Z,19.70
2022-08-12T06:42:02.722Z,19.70
2022-08-12T06:43:19.829Z,19.60
2022-08-12T06:44:22.286Z,19.70
2022-08-12T06:45:24.499Z,19.70
2022-08-12T06:46:47.040Z,19.80
2022-08-12T06:47:48.858Z,19.90
2022-08-12T06:48:57.216Z,19.90
2022-08-12T06:49:58.829Z,19.90
2022-08-12T06:51:03.887Z,19.90
2022-08-12T06:52:06.677Z,19.90
2022-08-12T06:53:09.283Z,19.90
2022-08-12T06:54:12.010Z,19.90
2022-08-12T06:55:20.480Z,19.80
2022-08-12T06:56:34.714Z,19.70
2022-08-12T06:57:56.050Z,19.60
2022-08-12T06:59:04.430Z,19.50
2022-08-12T07:00:08.838Z,19.50
2022-08-12T07:01:10.837Z,19.60
2022-08-12T07:02:12.634Z,19.60
2022-08-12T07:03:25.566Z,19.60
2022-08-12T07:04:42.711Z,19.60
2022-08-12T07:05:44.746Z,19.80
2022-08-12T07:06:46.389Z,19.90
2022-08-12T07:07:48.790Z,19.80
2022-08-12T07:08:50.669Z,19.90
2022-08-12T07:10:06.908Z,20.00
2022-08-12T07:11:13.290Z,20.10
2022-08-12T07:12:19.205Z,20.10
2022-08-12T07:13:20.870Z,20.10
2022-08-12T07:14:22.536Z,20.10
2022-08-12T07:15:25.290Z,20.10
2022-08-12T07:16:46.920Z,20.20
2022-08-12T07:17:48.779Z,20.20
2022-08-12T07:18:50.519Z,20.10
2022-08-12T07:19:53.571Z,20.10
2022-08-12T07:20:56.195Z,20.10
2022-08-12T07:22:06.294Z,20.10
2022-08-12T07:23:07.929Z,20.20
2022-08-12T07:24:09.544Z,20.30
2022-08-12T07:25:30.032Z,20.30
2022-08-12T07:26:43.732Z,20.30
2022-08-12T07:27:46.715Z,20.30
2022-08-12T07:28:49.109Z,20.30
2022-08-12T07:29:58.250Z,20.30
2022-08-12T07:31:09.034Z,20.40
2022-08-12T07:32:10.629Z,20.40
2022-08-12T07:33:13.525Z,20.30
2022-08-12T07:34:15.312Z,20.30
2022-08-12T07:35:18.432Z,20.40
2022-08-12T07:36:22.502Z,20.50
2022-08-12T07:37:24.101Z,20.60
2022-08-12T07:38:35.069Z,20.80
2022-08-12T07:39:36.734Z,20.80
2022-08-12T07:40:54.589Z,21.00
2022-08-12T07:41:56.527Z,21.00
2022-08-12T07:42:58.222Z,21.10
2022-08-12T07:44:06.179Z,21.10
2022-08-12T07:45:09.401Z,21.20
2022-08-12T07:46:15.092Z,21.10
2022-08-12T07:47:17.985Z,21.10
2022-08-12T07:48:20.410Z,21.10
2022-08-12T07:49:24.657Z,21.20
2022-08-12T07:50:27.122Z,21.30
2022-08-12T07:51:29.381Z,21.40
2022-08-12T07:52:31.232Z,21.40
2022-08-12T07:53:33.657Z,21.40
2022-08-12T07:54:49.633Z,21.40
2022-08-12T07:55:51.259Z,21.50
2022-08-12T07:56:52.996Z,21.70
2022-08-12T07:57:59.687Z,21.80
2022-08-12T07:59:02.944Z,21.90
2022-08-12T08:00:05.878Z,22.00
2022-08-12T08:01:15.456Z,22.10
2022-08-12T08:02:17.289Z,22.20
2022-08-12T08:03:19.014Z,22.20
2022-08-12T08:04:39.294Z,22.30
2022-08-12T08:05:46.520Z,22.40
2022-08-12T08:06:48.574Z,22.50
2022-08-12T08:07:50.385Z,22.50
2022-08-12T08:08:56.317Z,22.50
2022-08-12T08:09:59.866Z,22.50
2022-08-12T08:11:20.217Z,22.50
2022-08-12T08:12:40.777Z,22.60
2022-08-12T08:13:43.911Z,22.70
2022-08-12T08:14:46.380Z,22.80
2022-08-12T08:16:02.920Z,23.00
2022-08-12T08:17:06.493Z,23.10
2022-08-12T08:18:11.318Z,23.20
2022-08-12T08:19:19.120Z,23.20
2022-08-12T08:20:23.453Z,23.20
2022-08-12T08:21:29.468Z,23.30
2022-08-12T08:22:41.636Z,23.40
2022-08-12T08:24:05.199Z,23.40
2022-08-12T08:25:36.743Z,23.30
2022-08-12T08:26:29.268Z,23.40
2022-08-12T08:27:47.007Z,23.70
2022-08-12T08:28:48.716Z,23.60
2022-08-12T08:29:50.663Z,23.80
2022-08-12T08:30:53.561Z,23.90
2022-08-12T08:31:57.869Z,24.00
2022-08-12T08:33:00.128Z,24.00
2022-08-12T08:34:47.388Z,24.10
2022-08-12T08:35:26.069Z,24.20
2022-08-12T08:36:32.841Z,24.30
2022-08-12T08:37:37.049Z,24.40
2022-08-12T08:38:41.642Z,24.50
2022-08-12T08:40:17.529Z,24.70
2022-08-12T08:42:17.366Z,24.80
2022-08-12T08:42:59.554Z,24.90
2022-08-12T08:44:01.416Z,24.80
2022-08-12T08:45:12.777Z,24.80
2022-08-12T08:46:14.376Z,24.90
2022-08-12T08:47:15.995Z,24.90
2022-08-12T08:48:17.884Z,24.90
2022-08-12T08:49:19.865Z,25.10
2022-08-12T08:50:22.222Z,25.10
2022-08-12T08:51:26.112Z,25.40
2022-08-12T08:52:39.094Z,25.50
2022-08-12T08:53:44.877Z,25.50
2022-08-12T08:54:55.638Z,25.60
2022-08-12T08:56:05.177Z,25.70
2022-08-12T08:57:08.682Z,25.70
2022-08-12T08:58:11.939Z,25.80
2022-08-12T08:59:14.405Z,25.70
2022-08-12T09:00:19.271Z,25.80
2022-08-12T09:01:21.538Z,26.00
2022-08-12T09:02:23.359Z,26.10
2022-08-12T09:05:09.606Z,26.30
2022-08-12T09:05:13.104Z,26.50
2022-08-12T09:06:09.003Z,26.60
2022-08-12T09:07:51.945Z,26.80
2022-08-12T09:08:40.521Z,26.90
2022-08-12T09:10:02.300Z,26.90
2022-08-12T09:12:07.472Z,27.00
2022-08-12T09:13:08.492Z,27.10
2022-08-12T09:15:55.804Z,27.10
2022-08-12T09:16:57.841Z,27.20
2022-08-12T09:17:59.795Z,27.20
2022-08-12T09:19:05.362Z,27.30
2022-08-12T09:20:10.317Z,27.40
2022-08-12T09:21:17.527Z,27.40
2022-08-12T09:22:21.010Z,27.40
2022-08-12T09:23:58.982Z,27.50
2022-08-12T09:24:44.245Z,27.40
2022-08-12T09:25:49.623Z,27.40
2022-08-12T09:26:51.279Z,27.50
2022-08-12T09:30:08.588Z,27.40
2022-08-12T09:30:47.654Z,27.50
2022-08-12T09:32:05.838Z,27.60
2022-08-12T09:33:19.333Z,27.70
2022-08-12T09:34:37.614Z,27.80
2022-08-12T09:35:46.835Z,27.90
2022-08-12T09:37:19.327Z,27.90
2022-08-12T09:38:28.101Z,27.90
2022-08-12T09:40:04.342Z,27.90
2022-08-12T09:40:57.314Z,28.00
2022-08-12T09:42:51.482Z,27.90
2022-08-12T09:44:05.753Z,28.10
2022-08-12T09:46:05.364Z,28.20
2022-08-12T09:46:45.541Z,28.20
2022-08-12T09:47:59.126Z,28.10
2022-08-12T09:49:04.090Z,28.00
2022-08-12T09:50:20.543Z,28.00
2022-08-12T09:51:22.865Z,27.70
2022-08-12T09:52:24.895Z,27.80
2022-08-12T09:53:36.217Z,27.90
2022-08-12T09:54:42.961Z,28.00
2022-08-12T09:56:03.835Z,28.10
2022-08-12T09:58:46.096Z,28.20
2022-08-12T09:58:57.057Z,28.30
2022-08-12T10:00:17.240Z,28.20
2022-08-12T10:01:23.124Z,28.40
2022-08-12T10:02:44.095Z,28.40
2022-08-12T10:04:03.482Z,28.40
2022-08-12T10:05:13.264Z,28.50
2022-08-12T10:06:26.435Z,28.70
2022-08-12T10:07:39.459Z,28.80
2022-08-12T10:08:41.757Z,29.00
2022-08-12T10:09:58.603Z,28.90
2022-08-12T10:11:21.687Z,29.00
2022-08-12T10:12:43.540Z,29.10
2022-08-12T10:14:03.799Z,29.20
2022-08-12T10:15:07.292Z,29.10
2022-08-12T10:16:23.876Z,29.20
2022-08-12T10:17:25.512Z,29.30
2022-08-12T10:18:28.653Z,29.30
2022-08-12T10:19:36.163Z,29.40
2022-08-12T10:20:39.778Z,29.50
2022-08-12T10:21:42.572Z,29.60
2022-08-12T10:23:01.527Z,29.50
2022-08-12T10:24:08.736Z,29.50
2022-08-12T10:26:35.054Z,29.50
2022-08-12T10:27:14.163Z,29.70
2022-08-12T10:30:03.855Z,30.20
2022-08-12T10:31:05.175Z,30.30
2022-08-12T10:32:22.324Z,30.40
2022-08-12T10:33:32.277Z,30.50
2022-08-12T10:34:34.697Z,30.60
2022-08-12T10:35:37.804Z,30.70
2022-08-12T10:36:43.172Z,30.80
2022-08-12T10:38:36.481Z,31.00
2022-08-12T10:40:01.575Z,30.90
2022-08-12T10:40:55.910Z,31.00
2022-08-12T10:42:16.107Z,30.50
2022-08-12T10:43:54.096Z,30.10
2022-08-12T10:45:03.835Z,30.10
2022-08-12T10:46:13.521Z,30.40
2022-08-12T10:48:01.087Z,30.30
2022-08-12T10:48:55.802Z,30.60
2022-08-12T10:50:33.679Z,30.80
2022-08-12T10:52:04.933Z,31.10
2022-08-12T10:52:52.998Z,31.30
2022-08-12T10:54:00.704Z,31.40
2022-08-12T10:55:06.929Z,31.30
2022-08-12T10:56:16.515Z,31.40
2022-08-12T10:58:13.545Z,31.50
2022-08-12T10:58:40.675Z,31.20
2022-08-12T11:00:29.632Z,31.00
2022-08-12T11:04:14.722Z,31.00
2022-08-12T11:04:22.338Z,31.10
2022-08-12T11:04:26.249Z,30.80
2022-08-12T11:07:02.816Z,31.00
2022-08-12T11:07:03.467Z,31.00
2022-08-12T11:08:38.705Z,31.10
2022-08-12T11:09:42.021Z,31.20
2022-08-12T11:10:55.006Z,31.10
2022-08-12T11:12:35.075Z,31.10
2022-08-12T11:13:45.903Z,31.20
2022-08-12T11:14:49.115Z,31.30
2022-08-12T11:16:19.018Z,31.30
2022-08-12T11:17:43.481Z,31.40
2022-08-12T11:18:40.677Z,31.50
2022-08-12T11:19:43.542Z,31.40
2022-08-12T11:20:45.372Z,30.80
2022-08-12T11:21:57.698Z,30.80
2022-08-12T11:23:04.016Z,30.80
2022-08-12T11:24:06.806Z,30.90
2022-08-12T11:25:55.927Z,31.10
2022-08-12T11:26:52.273Z,30.70
2022-08-12T11:27:53.994Z,31.00
2022-08-12T11:29:05.351Z,31.20
2022-08-12T11:30:31.617Z,31.20
2022-08-12T11:31:30.158Z,31.40
2022-08-12T11:32:51.756Z,31.20
2022-08-12T11:34:06.720Z,31.00
2022-08-12T11:35:15.992Z,31.00
2022-08-12T11:36:22.123Z,30.30
2022-08-12T11:37:25.863Z,29.80
2022-08-12T11:38:28.415Z,29.60
2022-08-12T11:40:03.544Z,29.50
2022-08-12T11:40:51.749Z,29.30
2022-08-12T11:41:54.120Z,29.50
2022-08-12T11:43:18.646Z,29.70
2022-08-12T11:44:36.299Z,29.70
2022-08-12T11:45:41.911Z,29.90
2022-08-12T11:46:51.055Z,30.20
2022-08-12T11:47:59.485Z,30.60
2022-08-12T11:49:01.414Z,30.90
2022-08-12T11:50:03.917Z,31.00
2022-08-12T11:51:08.371Z,31.10
2022-08-12T11:52:12.038Z,31.20
2022-08-12T11:53:59.400Z,31.40
2022-08-12T11:54:51.122Z,31.50
2022-08-12T11:55:52.940Z,31.30
2022-08-12T11:56:59.611Z,31.40
2022-08-12T11:58:19.731Z,31.40
2022-08-12T12:02:07.728Z,31.40
2022-08-12T12:03:09.491Z,31.20
2022-08-12T12:04:11.214Z,31.40
2022-08-12T12:05:14.913Z,31.60
2022-08-12T12:06:21.537Z,31.60
2022-08-12T12:08:36.363Z,31.60
2022-08-12T12:08:51.292Z,31.70
2022-08-12T12:09:55.741Z,31.40
2022-08-12T12:10:57.777Z,31.50
2022-08-12T12:12:00.954Z,31.60
2022-08-12T12:13:03.220Z,31.80
2022-08-12T12:14:13.210Z,31.90
2022-08-12T12:15:24.879Z,31.90
2022-08-12T12:16:29.933Z,31.90
2022-08-12T12:17:38.093Z,31.90
2022-08-12T12:18:40.243Z,31.80
2022-08-12T12:19:46.084Z,31.60
2022-08-12T12:20:48.493Z,31.60
2022-08-12T12:21:50.101Z,31.50
2022-08-12T12:22:51.716Z,31.50
2022-08-12T12:23:54.328Z,31.40
2022-08-12T12:25:12.946Z,31.50
2022-08-12T12:26:35.017Z,31.70
2022-08-12T12:28:05.406Z,31.90
2022-08-12T12:30:19.273Z,32.00
2022-08-12T12:30:30.506Z,32.20
2022-08-12T12:32:10.390Z,32.40
2022-08-12T12:32:55.282Z,32.50
2022-08-12T12:33:58.780Z,32.50
2022-08-12T12:35:14.284Z,32.60
2022-08-12T12:36:29.811Z,32.60
2022-08-12T12:38:05.150Z,32.70
2022-08-12T12:38:54.055Z,32.80
2022-08-12T12:39:58.270Z,32.70
2022-08-12T12:40:59.981Z,32.70
2022-08-12T12:42:55.550Z,32.80
2022-08-12T12:43:43.247Z,32.70
2022-08-12T12:44:50.758Z,32.60
2022-08-12T12:45:52.768Z,32.50
2022-08-12T12:46:54.778Z,32.60
2022-08-12T12:48:05.459Z,32.70
2022-08-12T12:49:10.909Z,32.90
2022-08-12T12:50:35.172Z,32.90
2022-08-12T12:52:03.010Z,32.90
2022-08-12T12:52:57.773Z,32.60
2022-08-12T12:54:08.933Z,32.70
2022-08-12T12:55:11.373Z,32.70
2022-08-12T12:56:34.064Z,33.00
2022-08-12T12:58:00.204Z,33.00
2022-08-12T12:59:06.336Z,32.80
2022-08-12T13:00:16.787Z,32.70
2022-08-12T13:01:26.569Z,32.70
2022-08-12T13:02:31.672Z,32.70
2022-08-12T13:03:48.895Z,32.60
2022-08-12T13:04:51.712Z,32.60
2022-08-12T13:05:56.545Z,32.30
2022-08-12T13:06:59.098Z,32.30
2022-08-12T13:08:18.889Z,32.00
2022-08-12T13:09:36.085Z,31.90
2022-08-12T13:10:38.798Z,32.20
2022-08-12T13:11:53.095Z,32.40
2022-08-12T13:12:56.079Z,32.70
2022-08-12T13:14:07.413Z,32.70
2022-08-12T13:15:43.618Z,32.50
2022-08-12T13:16:43.864Z,32.70
2022-08-12T13:18:02.530Z,33.00
2022-08-12T13:19:05.432Z,32.20
2022-08-12T13:20:10.622Z,32.30
2022-08-12T13:21:15.867Z,32.40
2022-08-12T13:22:34.756Z,32.50
2022-08-12T13:23:37.755Z,32.60
2022-08-12T13:24:40.385Z,32.60
2022-08-12T13:25:42.651Z,32.70
2022-08-12T13:26:45.939Z,32.80
2022-08-12T13:27:48.905Z,32.80
2022-08-12T13:28:53.257Z,32.70
2022-08-12T13:30:02.001Z,32.70
2022-08-12T13:31:06.555Z,32.50
2022-08-12T13:32:30.783Z,32.30
2022-08-12T13:34:32.260Z,32.40
2022-08-12T13:34:53.484Z,32.70
2022-08-12T13:36:11.159Z,32.60
2022-08-12T13:37:26.857Z,32.70
2022-08-12T13:38:54.187Z,33.00
2022-08-12T13:39:56.398Z,33.10
2022-08-12T13:40:58.607Z,33.10
2022-08-12T13:42:00.576Z,33.00
2022-08-12T13:43:07.107Z,32.80
2022-08-12T13:44:11.546Z,32.90
2022-08-12T13:45:15.649Z,32.90
2022-08-12T13:46:17.707Z,32.80
2022-08-12T13:47:24.995Z,32.90
2022-08-12T13:48:28.890Z,32.90
2022-08-12T13:49:54.485Z,33.00
2022-08-12T13:50:57.365Z,33.10
2022-08-12T13:51:59.855Z,33.30
2022-08-12T13:53:23.436Z,33.50
2022-08-12T13:54:27.805Z,33.60
2022-08-12T13:55:30.946Z,33.50
2022-08-12T13:56:34.630Z,33.50
2022-08-12T13:57:44.479Z,33.40
2022-08-12T13:58:52.541Z,33.50
2022-08-12T14:00:00.400Z,33.60
2022-08-12T14:01:30.004Z,33.60
2022-08-12T14:02:40.220Z,33.70
2022-08-12T14:03:49.542Z,33.80
2022-08-12T14:04:56.627Z,33.80
2022-08-12T14:05:59.557Z,33.70
2022-08-12T14:07:03.018Z,33.50
2022-08-12T14:08:07.412Z,33.70
2022-08-12T14:09:15.563Z,33.80
2022-08-12T14:10:50.921Z,33.60
2022-08-12T14:11:59.181Z,33.60
2022-08-12T14:13:02.139Z,33.60
2022-08-12T14:14:13.024Z,33.70
2022-08-12T14:15:15.653Z,33.50
2022-08-12T14:17:05.563Z,33.30
2022-08-12T14:18:19.205Z,33.00
2022-08-12T14:19:47.286Z,33.00
2022-08-12T14:20:58.593Z,33.10
2022-08-12T14:22:06.895Z,33.00
2022-08-12T14:24:08.258Z,33.00
2022-08-12T14:25:02.114Z,33.00
2022-08-12T14:26:06.616Z,33.40
2022-08-12T14:27:14.213Z,33.50
2022-08-12T14:28:37.264Z,33.60
2022-08-12T14:30:04.539Z,33.60
2022-08-12T14:31:18.505Z,33.70
2022-08-12T14:32:39.030Z,33.60
2022-08-12T14:33:49.886Z,33.00
2022-08-12T14:34:53.290Z,33.00
2022-08-12T14:35:59.226Z,33.00
2022-08-12T14:37:02.616Z,33.10
2022-08-12T14:38:41.734Z,33.20
2022-08-12T14:39:47.068Z,32.90
2022-08-12T14:42:30.348Z,33.00
2022-08-12T14:43:44.393Z,33.10
2022-08-12T14:45:01.407Z,33.30
2022-08-12T14:46:15.446Z,33.70
2022-08-12T14:47:17.022Z,33.80
2022-08-12T14:48:24.458Z,33.80
2022-08-12T14:50:33.694Z,33.70
2022-08-12T14:51:09.646Z,33.50
2022-08-12T14:53:11.408Z,33.50
2022-08-12T14:57:56.866Z,33.40
2022-08-12T14:59:23.494Z,33.50
2022-08-12T15:00:52.470Z,33.50
2022-08-12T15:01:54.534Z,33.50
2022-08-12T15:02:56.625Z,33.30
2022-08-12T15:04:02.197Z,33.20
2022-08-12T15:05:04.281Z,33.10
2022-08-12T15:06:43.675Z,32.80
2022-08-12T15:07:34.371Z,32.50
2022-08-12T15:08:50.482Z,32.50
2022-08-12T15:09:52.790Z,32.60
2022-08-12T15:10:55.537Z,32.60
2022-08-12T15:12:03.918Z,32.70
2022-08-12T15:13:07.283Z,32.30
2022-08-12T15:14:09.589Z,32.30
2022-08-12T15:15:11.464Z,32.40
2022-08-12T15:16:13.731Z,32.40
2022-08-12T15:17:38.383Z,32.40
2022-08-12T15:18:40.259Z,32.50
2022-08-12T15:20:10.860Z,32.70
2022-08-12T15:21:18.762Z,32.70
2022-08-12T15:22:37.727Z,32.70
2022-08-12T15:23:54.905Z,32.80
2022-08-12T15:24:57.413Z,32.80